Clover, South Carolina
Current Conditions -  °F | °C
As of 2:54 PM on Thursday 23 Oct 2014 (Local Time) from KAKH Reporting Station
Clear Clear  
Wind Chill: 69°   Ceiling: Unl
Heat Index: 69°   Visibility: 10mi
Dew Point: 39°   Wind: 9mph
Humidity: 33%   Direction: 30°NNE
Pressure: 30"   Gusts: NA
Location:  35.11°N, 81.23°W
Report Text: KAKH 231854Z AUTO 03008KT 10SM CLR 21/04 A3000 RMK AO2 SLP158 T02060039
Loading
Personal Weather Stations






























Interactive Weather Map
Tropical Storm Tracking
New forecast layout! Learn more

10-Day Weather Forecast

Advertisements
Track Severe Weather on mobile